Terminal Aerodrome Forecast
Issued by NWS Charleston, WV

Current Version | Previous Version | Text Only | Print | Product List | Glossary Off
Versions: 1 2 3 4 5 6 7 8 9 10 11 12 13 14 15 16 17 18 19 20 21 22 23

000
FTUS41 KRLX 050200 AAA
TAFEKN
TAF AMD
KEKN 050232Z 0503/0524 27004KT P6SM SKC
     FM050900 00000KT 5SM BR FEW250
     FM051200 25004KT P6SM SCT050
     FM051700 27011G22KT P6SM VCTS BKN060CB
     FM052200 31008G15KT P6SM BKN070=

USA.gov is the U.S. government's official web portal to all federal, state and local government web resources and services.